Time;durP1;ratioP1;P1;durP2;ratioP2;P2;SDS_P1;SDS_P2;PMS_P1;PMS_P2;Temp;Humidity;BMP_temperature;BMP_pressure;BME280_temperature;BME280_humidity;BME280_pressure;Samples;Min_cycle;Max_cycle;Signal;HPM_P1;HPM_P2
2022/03/13 00:01:01;;;;;;;19.35;7.10;;;9.00;92.00;;;8.96;56.35;101023.22;5165224;28;20431;-73
2022/03/13 00:03:35;;;;;;;;;;;8.90;91.90;;;8.90;56.99;101025.53;5157061;28;20057;-73
2022/03/13 00:06:08;;;;;;;14.88;6.45;;;8.90;92.60;;;8.86;56.93;101021.00;5164074;28;19949;-73
2022/03/13 00:08:41;;;;;;;13.25;6.72;;;8.80;92.50;;;8.80;55.98;101020.75;5164034;28;20061;-73
2022/03/13 00:11:18;;;;;;;16.25;7.22;;;8.80;91.90;;;8.80;55.80;101015.56;5164483;28;20052;-73
2022/03/13 00:13:53;;;;;;;15.40;6.60;;;8.80;91.60;;;8.82;55.29;101019.09;5164553;28;20062;-73
2022/03/13 00:16:25;;;;;;;14.52;6.60;;;8.80;91.10;;;8.77;54.98;101010.22;5164998;28;20047;-73
2022/03/13 00:18:59;;;;;;;14.05;6.85;;;8.80;90.70;;;8.76;54.69;101012.75;5164619;28;20487;-73
2022/03/13 00:21:31;;;;;;;11.85;6.28;;;8.80;90.50;;;8.77;55.03;101018.00;5164799;28;20399;-74
2022/03/13 00:24:03;;;;;;;13.23;6.50;;;8.80;90.40;;;8.74;54.24;101012.69;5167013;28;20054;-73
2022/03/13 00:26:36;;;;;;;15.25;6.53;;;8.80;89.90;;;8.72;54.12;101008.22;5164148;28;20051;-72
2022/03/13 00:29:09;;;;;;;15.18;6.95;;;8.70;89.30;;;8.65;53.89;101000.13;5163439;28;20057;-72
2022/03/13 00:31:41;;;;;;;16.02;6.75;;;8.70;88.40;;;8.58;53.42;101004.97;5163981;28;20133;-73
2022/03/13 00:34:14;;;;;;;14.93;7.22;;;8.70;87.50;;;8.59;53.70;101002.44;5164537;28;20058;-73
2022/03/13 00:36:47;;;;;;;15.35;6.50;;;8.70;87.30;;;8.61;53.25;100998.25;5164285;28;20051;-73
2022/03/13 00:39:19;;;;;;;13.88;6.65;;;8.70;87.00;;;8.64;53.28;100998.34;5164536;28;20046;-73
2022/03/13 00:41:51;;;;;;;14.15;6.47;;;8.70;87.30;;;8.63;53.18;100991.38;5166858;28;20562;-73
2022/03/13 00:44:24;;;;;;;13.18;6.00;;;8.70;86.50;;;8.61;52.73;100997.34;5162951;28;20541;-73
2022/03/13 00:46:56;;;;;;;14.93;6.60;;;8.70;85.90;;;8.59;52.44;100992.06;5163911;28;20052;-73
2022/03/13 00:49:30;;;;;;;15.55;6.65;;;8.70;85.10;;;8.56;52.49;100988.44;5163011;28;20096;-74
2022/03/13 00:52:04;;;;;;;14.85;6.07;;;8.60;84.70;;;8.59;52.38;100996.38;5162600;28;20052;-73
2022/03/13 00:54:35;;;;;;;14.02;6.28;;;8.60;84.50;;;8.56;51.69;100993.63;5163778;28;20057;-73
2022/03/13 00:57:08;;;;;;;14.65;6.95;;;8.60;82.90;;;8.56;51.15;100993.63;5163623;28;20133;-73
2022/03/13 00:59:40;;;;;;;17.42;6.88;;;8.60;82.10;;;8.53;50.84;100990.88;5164506;28;20141;-74
2022/03/13 01:02:12;;;;;;;12.77;5.95;;;8.60;81.80;;;8.50;51.04;100982.97;5166553;28;20049;-74
2022/03/13 01:04:45;;;;;;;14.45;7.05;;;8.60;81.40;;;8.42;50.87;100986.09;5164121;28;20046;-72
2022/03/13 01:07:17;;;;;;;14.70;6.65;;;8.60;80.40;;;8.39;50.68;100980.75;5163969;28;20070;-72
2022/03/13 01:09:49;;;;;;;15.60;6.15;;;8.50;80.30;;;8.37;50.48;100985.00;5165733;28;20052;-73
2022/03/13 01:12:21;;;;;;;12.27;5.82;;;8.50;80.00;;;8.37;50.19;100981.50;5167724;28;20050;-73
2022/03/13 01:14:53;;;;;;;14.88;6.55;;;8.50;79.90;;;8.38;50.39;100978.97;5167504;28;20055;-73
2022/03/13 01:17:26;;;;;;;13.75;6.22;;;8.50;79.90;;;8.40;50.33;100974.72;5167847;28;20056;-73
2022/03/13 01:20:01;;;;;;;13.63;6.70;;;8.50;79.40;;;8.35;48.95;100978.84;5170741;28;20406;-73
2022/03/13 01:22:34;;;;;;;12.43;6.40;;;8.50;77.40;;;8.37;49.41;100974.59;5167743;28;20054;-73
2022/03/13 01:25:06;;;;;;;12.82;5.72;;;8.50;77.20;;;8.39;49.70;100969.47;5167491;28;20057;-73
2022/03/13 01:27:38;;;;;;;12.70;6.13;;;8.50;78.00;;;8.38;49.72;100962.50;5167341;28;20502;-73
2022/03/13 01:30:13;;;;;;;11.75;5.57;;;8.50;78.20;;;8.35;49.95;100964.94;5167227;28;20070;-73
2022/03/13 01:32:53;;;;;;;14.43;5.60;;;8.40;78.90;;;8.30;50.07;100962.13;5166445;28;20047;-74
2022/03/13 01:35:27;;;;;;;12.48;6.13;;;8.30;79.60;;;8.27;50.48;100959.34;5167315;28;20502;-73
2022/03/13 01:37:59;;;;;;;13.25;6.47;;;8.30;79.60;;;8.23;50.32;100952.25;5167239;28;20410;-73
2022/03/13 01:40:30;;;;;;;11.82;5.97;;;8.20;80.00;;;8.17;49.75;100946.78;5166969;28;20054;-73
2022/03/13 01:43:02;;;;;;;12.88;6.38;;;8.20;79.20;;;8.11;49.86;100941.31;5166961;28;20054;-73
2022/03/13 01:45:34;;;;;;;14.25;7.10;;;8.20;78.80;;;8.06;49.88;100950.56;5167018;28;20049;-73
2022/03/13 01:48:07;;;;;;;15.27;6.47;;;8.10;78.30;;;8.04;50.09;100945.31;5166722;28;20046;-73
2022/03/13 01:50:40;;;;;;;12.07;6.05;;;8.10;78.80;;;8.03;50.05;100945.25;5166917;28;20050;-73
2022/03/13 01:53:14;;;;;;;12.57;5.55;;;8.10;78.90;;;8.01;50.69;100939.97;5166947;28;20047;-73
2022/03/13 01:55:46;;;;;;;14.20;6.20;;;8.10;79.90;;;8.01;50.34;100933.88;5166966;28;20056;-73
2022/03/13 01:58:18;;;;;;;14.25;6.20;;;8.00;79.90;;;7.95;50.36;100928.41;5166794;28;20057;-73
2022/03/13 02:00:50;;;;;;;12.05;5.90;;;8.00;79.60;;;7.89;50.26;100927.31;5166404;28;20046;-73
2022/03/13 02:03:23;;;;;;;13.95;6.88;;;8.00;79.30;;;7.85;50.33;100932.28;5166908;28;20487;-73
2022/03/13 02:05:57;;;;;;;14.10;6.10;;;8.00;79.10;;;7.83;49.88;100924.44;5166875;28;20560;-74
2022/03/13 02:08:29;;;;;;;14.30;5.50;;;7.90;78.80;;;7.84;49.95;100925.31;5166287;28;20149;-73
2022/03/13 02:11:03;;;;;;;14.60;6.22;;;7.90;78.70;;;7.85;50.18;100917.59;5166630;28;20050;-74
2022/03/13 02:13:36;;;;;;;15.18;6.45;;;7.90;78.60;;;7.82;49.69;100912.28;5166472;28;20064;-73
2022/03/13 02:16:08;;;;;;;11.70;5.72;;;7.90;78.10;;;7.78;49.12;100910.34;5166322;28;20129;-72
2022/03/13 02:18:41;;;;;;;15.93;6.30;;;7.90;77.10;;;7.74;49.18;100910.09;5166091;28;20054;-73
2022/03/13 02:21:14;;;;;;;13.93;6.05;;;7.90;76.30;;;7.75;48.92;100909.28;5165930;28;20524;-73
2022/03/13 02:23:47;;;;;;;14.65;5.97;;;7.90;76.50;;;7.76;49.92;100905.88;5166153;28;20480;-73
2022/03/13 02:26:22;;;;;;;12.27;5.82;;;7.80;77.30;;;7.76;50.32;100905.88;5165990;28;20050;-73
2022/03/13 02:28:56;;;;;;;13.00;5.78;;;7.80;79.90;;;7.74;50.07;100897.13;5166263;28;20057;-73
2022/03/13 02:31:32;;;;;;;13.77;6.05;;;7.80;79.00;;;7.69;50.96;100890.81;5165856;28;20054;-73
2022/03/13 02:34:06;;;;;;;13.32;6.13;;;7.70;80.10;;;7.61;50.60;100890.47;5165842;28;20050;-73
2022/03/13 02:36:57;;;;;;;14.70;5.82;;;7.70;79.70;;;7.59;50.86;100884.31;5166208;28;20050;-73
2022/03/13 02:39:36;;;;;;;11.63;5.78;;;7.60;79.90;;;7.52;50.32;100880.53;5160577;28;20054;-74
2022/03/13 02:42:08;;;;;;;13.73;5.70;;;7.60;79.00;;;7.52;50.27;100880.53;5165671;28;20053;-73
2022/03/13 02:44:40;;;;;;;12.95;6.00;;;7.50;78.50;;;7.54;48.90;100883.19;5166060;28;20136;-73
2022/03/13 02:47:12;;;;;;;13.57;5.55;;;7.60;76.40;;;7.57;48.79;100878.19;5165541;28;20050;-73
2022/03/13 02:49:44;;;;;;;10.27;4.97;;;7.60;76.80;;;7.58;48.85;100879.97;5165735;28;20414;-73
2022/03/13 02:52:16;;;;;;;12.00;5.07;;;7.60;76.50;;;7.58;47.05;100879.97;5165470;28;20052;-73
2022/03/13 02:54:50;;;;;;;11.98;5.13;;;7.60;73.70;;;7.59;46.07;100871.34;5165725;28;20050;-73
2022/03/13 02:57:22;;;;;;;13.73;5.88;;;7.60;71.10;;;7.61;45.47;100872.31;5165540;28;20472;-73
2022/03/13 02:59:54;;;;;;;13.43;5.85;;;7.70;70.00;;;7.64;44.30;100869.88;5165361;28;20047;-73
2022/03/13 03:02:25;;;;;;;12.57;5.82;;;7.70;68.10;;;7.72;44.28;100871.13;5165490;28;20050;-73
2022/03/13 03:04:57;;;;;;;13.10;4.97;;;7.80;68.20;;;7.76;44.42;100865.28;5165221;28;20046;-72
2022/03/13 03:07:29;;;;;;;12.90;5.75;;;7.80;67.40;;;7.76;43.28;100869.53;5165480;28;20398;-73
2022/03/13 03:10:04;;;;;;;11.38;5.00;;;7.90;66.30;;;7.76;43.44;100861.75;5165447;28;20060;-73
2022/03/13 03:12:36;;;;;;;12.40;5.35;;;7.90;66.60;;;7.74;43.29;100861.69;5165029;28;20050;-73
2022/03/13 03:15:09;;;;;;;12.43;5.57;;;7.90;66.10;;;7.72;43.50;100859.84;5165215;28;20132;-73
2022/03/13 03:17:41;;;;;;;12.18;5.18;;;7.90;66.30;;;7.68;43.80;100856.22;5165279;28;20050;-72
2022/03/13 03:20:13;;;;;;;13.55;5.22;;;7.80;66.30;;;7.67;43.69;100864.81;5165300;28;20050;-73
2022/03/13 03:22:45;;;;;;;12.77;5.95;;;7.80;66.40;;;7.67;44.22;100858.75;5165220;28;20515;-73
2022/03/13 03:25:23;;;;;;;14.07;5.78;;;7.80;66.70;;;7.64;43.62;100867.28;5164949;28;20058;-73
2022/03/13 03:27:58;;;;;;;10.98;5.45;;;7.80;66.20;;;7.63;44.30;100865.50;5165020;28;20248;-73
2022/03/13 03:30:31;;;;;;;12.43;6.00;;;7.80;66.30;;;7.63;44.03;100875.88;5164765;28;20053;-73
2022/03/13 03:33:05;;;;;;;12.93;5.25;;;7.80;66.30;;;7.64;44.05;100872.47;5164254;28;20380;-73
2022/03/13 03:35:37;;;;;;;11.63;5.40;;;7.70;66.60;;;7.64;43.74;100875.06;5165260;28;20391;-73
2022/03/13 03:38:09;;;;;;;12.82;5.68;;;7.70;66.40;;;7.57;44.26;100881.66;5164981;28;20429;-73
2022/03/13 03:40:42;;;;;;;14.20;5.30;;;7.70;66.30;;;7.53;43.76;100874.53;5164883;28;20054;-73
2022/03/13 03:43:15;;;;;;;11.52;5.60;;;7.60;66.20;;;7.50;43.75;100878.72;5164812;28;20602;-73
2022/03/13 03:45:47;;;;;;;13.88;5.47;;;7.60;66.70;;;7.47;45.25;100875.94;5164840;28;20424;-73
2022/03/13 03:48:20;;;;;;;10.25;4.97;;;7.60;68.60;;;7.42;46.20;100874.81;5164824;28;20143;-73
2022/03/13 03:50:52;;;;;;;12.00;5.13;;;7.50;70.00;;;7.33;46.71;100876.16;5164575;28;20061;-73
2022/03/13 03:53:24;;;;;;;14.18;5.55;;;7.50;70.70;;;7.25;47.61;100880.09;5164777;28;20047;-73
2022/03/13 03:55:58;;;;;;;11.38;5.38;;;7.30;71.90;;;7.13;47.82;100884.66;5164504;28;20411;-73
2022/03/13 03:58:30;;;;;;;11.20;5.60;;;7.20;73.60;;;7.03;48.22;100885.00;5164741;28;20046;-72
2022/03/13 04:01:02;;;;;;;14.07;6.03;;;7.10;73.90;;;6.97;48.46;100889.88;5164605;28;20050;-73
2022/03/13 04:03:34;;;;;;;14.52;5.30;;;7.00;74.70;;;6.92;48.14;100875.81;5164543;28;20043;-73
2022/03/13 04:06:06;;;;;;;11.52;5.85;;;7.00;74.20;;;6.87;47.46;100885.06;5164538;28;20462;-73
2022/03/13 04:08:38;;;;;;;12.20;5.82;;;6.90;72.80;;;6.84;47.05;100882.28;5164474;28;20053;-72
2022/03/13 04:11:12;;;;;;;12.95;5.35;;;6.90;71.90;;;6.85;47.32;100886.69;5164366;28;20594;-72
2022/03/13 04:13:44;;;;;;;13.63;5.50;;;6.90;72.90;;;6.82;47.66;100887.41;5164001;28;20092;-73
2022/03/13 04:16:16;;;;;;;11.90;5.28;;;6.90;73.20;;;6.80;47.65;100884.75;5164198;28;20081;-72
2022/03/13 04:18:48;;;;;;;13.52;5.65;;;6.80;72.90;;;6.75;47.06;100885.31;5164155;28;20057;-72
2022/03/13 04:21:20;;;;;;;15.60;5.90;;;6.90;71.30;;;6.73;46.06;100898.19;5164236;28;20054;-73
2022/03/13 04:23:53;;;;;;;13.57;6.00;;;6.80;70.20;;;6.73;45.53;100887.84;5164277;28;20077;-73
2022/03/13 04:26:26;;;;;;;13.18;6.20;;;6.90;69.90;;;6.72;45.63;100892.94;5164144;28;20050;-74
2022/03/13 04:28:58;;;;;;;14.15;6.30;;;6.80;69.20;;;6.76;45.59;100893.16;5164214;28;20046;-73
2022/03/13 04:31:30;;;;;;;12.05;5.25;;;6.90;69.10;;;6.79;45.54;100882.97;5164244;28;20510;-73
2022/03/13 04:34:02;;;;;;;9.82;5.22;;;6.90;68.50;;;6.82;45.04;100865.78;5164364;28;20046;-73
2022/03/13 04:36:35;;;;;;;11.52;4.93;;;6.90;67.70;;;6.84;44.46;100869.34;5164114;28;20052;-73
2022/03/13 04:39:09;;;;;;;13.18;5.68;;;7.00;67.40;;;6.84;44.08;100859.84;5164037;28;20054;-73
2022/03/13 04:41:42;;;;;;;13.82;5.65;;;7.00;66.30;;;6.86;43.70;100863.44;5163659;28;20566;-73
2022/03/13 04:44:14;;;;;;;11.77;5.85;;;7.10;66.00;;;6.92;43.73;100860.28;5166915;28;20050;-73
2022/03/13 04:46:46;;;;;;;9.85;4.97;;;7.10;66.20;;;6.99;44.49;100867.53;5168536;28;20488;-74
2022/03/13 04:49:18;;;;;;;10.27;4.68;;;7.10;67.30;;;7.04;44.54;100869.56;5168000;28;20054;-73
2022/03/13 04:51:50;;;;;;;10.13;4.85;;;7.20;67.10;;;7.08;44.43;100863.69;5167973;28;20093;-73
2022/03/13 04:54:22;;;;;;;12.85;5.78;;;7.20;67.50;;;7.07;43.87;100868.81;5167931;28;20054;-73
2022/03/13 04:56:56;;;;;;;11.13;5.07;;;7.20;66.50;;;7.10;43.94;100863.75;5167849;28;20403;-73
2022/03/13 04:59:28;;;;;;;13.18;5.78;;;7.20;66.70;;;7.11;44.25;100865.56;5167597;28;20050;-73
2022/03/13 05:02:00;;;;;;;15.48;5.57;;;7.20;66.00;;;7.14;43.33;100870.88;5167698;28;20043;-73
2022/03/13 05:04:32;;;;;;;11.35;5.30;;;7.30;65.90;;;7.15;43.70;100864.88;5167848;28;20050;-73
2022/03/13 05:07:06;;;;;;;12.95;5.05;;;7.30;65.90;;;7.14;43.18;100867.41;5167458;28;20221;-74
2022/03/13 05:09:38;;;;;;;12.73;5.97;;;7.30;64.30;;;7.14;42.51;100864.81;5167629;28;20137;-73
2022/03/13 05:12:12;;;;;;;10.73;5.55;;;7.30;64.20;;;7.19;42.82;100869.41;5167568;28;20218;-73
2022/03/13 05:14:44;;;;;;;11.25;5.20;;;7.30;64.20;;;7.22;41.58;100859.19;5167361;28;20358;-73
2022/03/13 05:17:16;;;;;;;12.93;5.53;;;7.40;62.40;;;7.26;40.82;100865.41;5167263;28;20046;-73
2022/03/13 05:19:48;;;;;;;13.13;5.43;;;7.40;61.40;;;7.32;41.26;100876.09;5167072;28;20053;-73
2022/03/13 05:22:20;;;;;;;12.88;5.32;;;7.40;61.90;;;7.34;40.53;100854.59;5167648;28;20053;-73
2022/03/13 05:24:52;;;;;;;12.63;5.30;;;7.50;61.40;;;7.35;40.99;100856.38;5167509;28;20050;-74
2022/03/13 05:27:25;;;;;;;11.73;5.18;;;7.50;61.10;;;7.43;40.25;100866.22;5167603;28;20050;-73
2022/03/13 05:29:57;;;;;;;14.23;6.75;;;7.50;60.80;;;7.44;39.41;100868.03;5167255;28;20046;-73
2022/03/13 05:32:29;;;;;;;13.07;5.07;;;7.60;59.20;;;7.49;39.33;100866.53;5167368;28;20050;-73
2022/03/13 05:35:01;;;;;;;9.65;5.13;;;7.60;58.90;;;7.52;38.59;100864.09;5167339;28;20060;-74
2022/03/13 05:37:33;;;;;;;12.48;5.22;;;7.60;58.60;;;7.55;38.51;100859.03;5167268;28;20046;-73
2022/03/13 05:40:07;;;;;;;11.45;5.63;;;7.70;58.30;;;7.62;38.65;100863.69;5272710;23;20050;-70
2022/03/13 05:42:42;;;;;;;9.82;4.28;;;7.70;58.10;;;7.67;38.60;100870.00;5187576;28;20054;-71
2022/03/13 05:45:16;;;;;;;10.73;5.03;;;7.70;58.60;;;7.69;37.94;100870.94;5183540;28;20491;-71
2022/03/13 05:47:51;;;;;;;13.60;5.80;;;7.80;57.70;;;7.75;38.76;100873.84;5166999;28;20410;-71
2022/03/13 05:50:25;;;;;;;10.70;5.28;;;7.80;58.00;;;7.71;37.67;100879.72;5166761;28;20057;-70
2022/03/13 05:52:58;;;;;;;10.75;5.40;;;7.80;57.50;;;7.74;37.64;100877.25;5166894;28;20475;-71
2022/03/13 05:55:31;;;;;;;13.43;5.70;;;7.80;57.20;;;7.81;37.63;100879.31;5166164;28;20491;-70
2022/03/13 05:58:04;;;;;;;13.38;5.20;;;7.90;57.50;;;7.82;38.31;100878.53;5166618;28;20062;-71
2022/03/13 06:00:39;;;;;;;11.38;5.13;;;7.90;57.20;;;7.95;37.16;100881.66;5167815;28;20046;-73
2022/03/13 06:03:11;;;;;;;12.57;5.38;;;7.90;56.40;;;7.86;36.02;100875.25;5158541;28;20133;-71
2022/03/13 06:05:43;;;;;;;12.82;5.57;;;7.90;55.40;;;7.87;36.51;100884.81;5166341;28;20253;-71
2022/03/13 06:08:15;;;;;;;10.18;5.13;;;7.90;55.50;;;7.87;37.03;100878.72;5166657;28;20072;-72
2022/03/13 06:10:47;;;;;;;12.25;5.35;;;7.90;55.60;;;7.89;36.36;100871.94;5166341;28;20050;-74
2022/03/13 06:13:22;;;;;;;11.18;5.28;;;8.00;55.40;;;7.91;36.99;100879.78;5166170;28;20050;-71
2022/03/13 06:15:54;;;;;;;11.23;4.90;;;8.00;55.60;;;8.03;36.96;100890.72;5166564;28;20046;-71
2022/03/13 06:18:27;;;;;;;11.45;5.47;;;8.00;55.70;;;8.04;36.33;100888.19;5166486;28;20050;-71
2022/03/13 06:20:59;;;;;;;10.30;4.80;;;8.10;55.30;;;8.11;36.10;100886.78;5167734;28;20484;-71
2022/03/13 06:23:33;;;;;;;13.65;5.22;;;8.10;54.80;;;8.40;36.25;100888.13;5166108;28;20057;-71
2022/03/13 06:26:05;;;;;;;11.15;5.65;;;8.30;55.00;;;8.64;35.75;100888.31;5166477;28;20053;-71
2022/03/13 06:28:39;;;;;;;13.75;5.45;;;8.50;55.10;;;8.78;35.49;100883.72;5166328;28;20243;-72
2022/03/13 06:31:12;;;;;;;12.75;6.05;;;8.60;54.70;;;8.94;35.23;100884.47;5165955;28;20049;-71
2022/03/13 06:33:43;;;;;;;10.10;5.32;;;8.70;54.40;;;9.05;35.31;100882.31;5165773;28;20089;-70
2022/03/13 06:36:15;;;;;;;10.93;5.63;;;8.80;54.00;;;9.05;35.12;100891.81;5165949;28;20046;-71
2022/03/13 06:38:47;;;;;;;13.07;5.95;;;8.90;53.90;;;8.91;34.87;100892.13;5166917;28;20403;-71
2022/03/13 06:41:20;;;;;;;12.18;5.88;;;8.80;53.50;;;8.85;34.87;100891.84;5165670;28;20054;-76
2022/03/13 06:43:53;;;;;;;12.43;6.15;;;8.80;53.60;;;8.72;35.13;100891.25;5165833;28;20050;-72
2022/03/13 06:46:25;;;;;;;11.05;5.35;;;8.80;53.40;;;8.51;35.09;100894.69;5165718;28;20049;-73
2022/03/13 06:48:57;;;;;;;11.07;4.50;;;8.60;53.10;;;8.48;35.03;100894.56;5165798;28;20062;-71
2022/03/13 06:51:29;;;;;;;12.00;5.15;;;8.50;53.60;;;8.43;35.12;100896.06;5165442;28;20046;-70
2022/03/13 06:54:01;;;;;;;10.32;5.22;;;8.50;53.60;;;8.47;35.83;100905.75;5165592;28;20057;-71
2022/03/13 06:56:34;;;;;;;10.10;4.97;;;8.50;53.90;;;8.39;35.53;100895.03;5165864;28;20057;-71
2022/03/13 06:59:08;;;;;;;10.50;4.97;;;8.50;53.60;;;8.31;35.65;100911.94;5167870;28;20086;-74
2022/03/13 07:01:40;;;;;;;12.85;5.45;;;8.40;53.70;;;8.30;35.62;100907.56;5165384;28;20050;-75
2022/03/13 07:04:14;;;;;;;11.98;5.60;;;8.40;53.70;;;8.32;35.37;100898.13;5165388;28;20038;-75
2022/03/13 07:06:46;;;;;;;10.63;4.88;;;8.40;53.70;;;8.34;35.37;100899.09;5164851;28;20053;-74
2022/03/13 07:09:18;;;;;;;12.25;5.32;;;8.40;53.90;;;8.37;35.82;100903.56;5165100;28;20434;-74
2022/03/13 07:11:50;;;;;;;10.32;5.07;;;8.40;53.90;;;8.41;35.40;100900.28;5165389;28;20061;-74
2022/03/13 07:14:24;;;;;;;13.57;5.15;;;8.40;54.10;;;8.40;35.61;100909.78;5164976;28;20050;-74
2022/03/13 07:16:56;;;;;;;11.55;5.07;;;8.40;53.60;;;8.45;35.32;100912.59;5165199;28;20085;-74
2022/03/13 07:19:28;;;;;;;12.95;5.68;;;8.50;53.90;;;8.45;35.18;100911.72;5164717;28;20050;-74
2022/03/13 07:22:00;;;;;;;11.05;5.32;;;8.50;53.50;;;8.63;35.21;100913.44;5165039;28;20134;-75
2022/03/13 07:24:32;;;;;;;13.85;5.55;;;8.60;53.60;;;8.65;34.51;100916.97;5164933;28;20359;-73
2022/03/13 07:27:05;;;;;;;10.63;4.88;;;8.60;53.00;;;8.70;34.87;100909.38;5164615;28;20056;-74
2022/03/13 07:29:38;;;;;;;10.48;5.05;;;8.70;53.10;;;8.75;34.82;100909.59;5164957;28;20136;-74
2022/03/13 07:32:11;;;;;;;11.25;5.30;;;8.70;53.10;;;8.73;34.45;100912.09;5164791;28;20160;-74
2022/03/13 07:34:43;;;;;;;10.25;4.93;;;8.70;52.50;;;8.81;34.72;100910.75;5164964;28;20483;-73
2022/03/13 07:37:15;;;;;;;11.60;5.50;;;8.80;53.10;;;8.87;34.44;100913.63;5164650;28;20060;-73
2022/03/13 07:39:48;;;;;;;13.52;6.22;;;8.80;52.40;;;8.84;34.77;100897.88;5164662;28;20050;-74
2022/03/13 07:42:20;;;;;;;11.35;5.22;;;8.80;52.60;;;8.75;33.95;100905.28;5164498;28;20057;-74
2022/03/13 07:44:53;;;;;;;12.95;6.40;;;8.80;51.90;;;8.78;34.60;100899.31;5164316;28;20053;-74
2022/03/13 07:47:26;;;;;;;10.75;5.10;;;8.80;52.40;;;8.77;34.47;100902.75;5164311;28;20511;-74
2022/03/13 07:49:58;;;;;;;14.07;6.05;;;8.80;52.40;;;8.79;34.17;100909.78;5164374;28;20092;-75
2022/03/13 07:52:30;;;;;;;9.40;5.43;;;8.80;52.30;;;8.87;34.58;100903.22;5164179;28;20419;-74
2022/03/13 07:55:03;;;;;;;12.35;4.93;;;8.90;52.70;;;8.93;34.30;100913.91;5164100;28;20050;-74
2022/03/13 07:57:35;;;;;;;12.10;5.03;;;8.90;52.50;;;8.93;34.20;100913.91;5164001;28;20046;-74
2022/03/13 08:00:12;;;;;;;11.48;5.20;;;8.90;51.80;;;9.02;33.87;100908.19;5164180;28;20050;-73
2022/03/13 08:02:46;;;;;;;11.90;5.22;;;9.00;51.90;;;9.14;33.74;100926.03;5164388;28;20093;-74
2022/03/13 08:05:21;;;;;;;14.80;5.60;;;9.10;52.20;;;9.31;33.41;100912.00;5163850;28;20046;-75
2022/03/13 08:07:56;;;;;;;12.95;4.97;;;9.20;51.60;;;9.63;35.62;100909.84;5164201;28;20046;-74
2022/03/13 08:10:29;;;;;;;14.05;6.78;;;9.40;54.30;;;10.11;33.76;100910.00;5164720;28;20052;-74
2022/03/13 08:13:01;;;;;;;10.65;5.82;;;9.80;52.40;;;10.18;32.47;100917.22;5164129;28;20050;-74
2022/03/13 08:15:34;;;;;;;13.32;6.57;;;9.90;50.50;;;10.31;32.01;100914.28;5163921;28;20062;-71
2022/03/13 08:18:09;;;;;;;13.75;6.63;;;10.00;50.10;;;10.51;32.09;100908.09;5163556;28;20054;-73
2022/03/13 08:20:41;;;;;;;11.80;5.85;;;10.20;50.20;;;10.64;31.27;100903.34;5163769;28;20050;-73
2022/03/13 08:23:13;;;;;;;10.82;5.63;;;10.30;49.30;;;10.68;31.27;100908.69;5164162;28;20053;-70
2022/03/13 08:25:45;;;;;;;12.82;5.97;;;10.40;49.20;;;10.52;31.22;100901.16;5163786;28;20085;-73
2022/03/13 08:28:17;;;;;;;12.25;5.53;;;10.40;49.10;;;10.34;31.93;100906.56;5163528;28;20514;-74
2022/03/13 08:30:51;;;;;;;12.43;5.78;;;10.30;49.30;;;10.50;31.99;100916.75;5164069;28;20054;-73
2022/03/13 08:33:23;;;;;;;8.70;4.13;;;10.30;49.90;;;10.58;40.99;100917.03;5163724;28;20050;-73
2022/03/13 08:35:55;;;;;;;12.77;5.57;;;10.30;63.30;;;10.99;33.04;100913.28;5163848;28;20065;-73
2022/03/13 08:38:28;;;;;;;9.57;4.95;;;10.60;51.30;;;11.30;31.47;100912.63;5163453;28;20054;-71
2022/03/13 08:41:00;;;;;;;14.82;6.90;;;10.90;49.50;;;12.07;30.52;100918.63;5163791;28;20054;-73
2022/03/13 08:43:32;;;;;;;11.20;5.20;;;11.30;49.40;;;12.82;35.29;100910.31;5163354;28;20050;-66
2022/03/13 08:46:06;;;;;;;10.82;4.72;;;11.80;52.90;;;14.03;36.02;100926.50;5163850;28;20050;-68
2022/03/13 08:48:38;;;;;;;13.48;6.47;;;12.80;59.30;;;14.86;26.96;100916.91;5163373;28;20415;-73
2022/03/13 08:51:12;;;;;;;13.75;5.80;;;13.70;45.90;;;15.40;26.41;100918.78;5163633;28;20054;-73
2022/03/13 08:53:44;;;;;;;11.35;6.68;;;14.10;45.30;;;16.17;28.32;100914.72;5163914;28;20043;-72
2022/03/13 08:56:16;;;;;;;12.27;6.22;;;14.80;48.20;;;16.80;25.19;100917.34;5163610;28;20437;-69
2022/03/13 08:58:48;;;;;;;9.52;4.78;;;15.50;43.90;;;16.96;25.91;100918.41;5163381;28;20050;-74
2022/03/13 09:01:24;;;;;;;11.68;6.43;;;15.70;44.70;;;17.24;25.69;100909.03;5163655;28;20058;-74
2022/03/13 09:03:57;;;;;;;10.95;5.88;;;16.00;44.80;;;16.90;24.00;100899.91;5163717;28;20101;-72
2022/03/13 09:06:29;;;;;;;12.02;7.07;;;16.10;41.50;;;16.15;24.55;100908.59;5163532;28;20065;-72
2022/03/13 09:09:01;;;;;;;12.13;6.72;;;15.70;41.50;;;15.42;25.13;100901.31;5162516;28;20081;-72
2022/03/13 09:11:34;;;;;;;10.68;6.15;;;15.20;41.90;;;14.34;26.21;100897.50;5163473;28;20480;-71
2022/03/13 09:14:06;;;;;;;13.38;6.03;;;14.40;42.60;;;13.94;27.15;100900.06;5162759;28;20574;-71
2022/03/13 09:16:41;;;;;;;12.32;5.88;;;13.90;43.60;;;13.73;27.38;100898.72;5160547;28;20105;-71
2022/03/13 09:19:14;;;;;;;12.25;6.32;;;13.60;44.00;;;13.49;28.01;100895.50;5163140;28;20418;-72
2022/03/13 09:21:46;;;;;;;12.15;5.93;;;13.40;44.70;;;13.42;28.12;100897.09;5163025;28;20061;-70
2022/03/13 09:24:18;;;;;;;11.13;6.03;;;13.20;45.10;;;13.28;28.85;100888.03;5163583;28;20137;-72
2022/03/13 09:26:50;;;;;;;12.10;6.57;;;13.10;45.90;;;13.29;28.96;100889.78;5162897;28;20058;-73
2022/03/13 09:29:22;;;;;;;11.48;6.57;;;13.00;46.20;;;13.39;29.19;100888.28;5163253;28;20054;-72
2022/03/13 09:31:56;;;;;;;11.32;6.07;;;13.00;46.60;;;13.39;29.26;100885.69;5166674;28;20050;-73
2022/03/13 09:34:28;;;;;;;12.82;5.95;;;13.00;46.50;;;13.36;28.94;100886.47;5165249;28;20049;-70
2022/03/13 09:37:00;;;;;;;14.20;7.22;;;12.90;46.20;;;13.42;28.96;100885.75;5161777;28;20088;-71
2022/03/13 09:39:32;;;;;;;13.63;6.10;;;12.90;46.30;;;13.38;29.35;100889.16;5167193;28;20137;-73
2022/03/13 09:42:05;;;;;;;12.40;6.43;;;12.90;46.70;;;13.49;29.46;100896.41;5166968;28;20054;-71
2022/03/13 09:44:37;;;;;;;13.73;6.50;;;13.00;47.50;;;13.51;29.05;100885.97;5167638;28;20046;-76
2022/03/13 09:47:11;;;;;;;11.43;5.65;;;13.00;46.40;;;13.71;29.64;100894.31;5167440;28;20132;-72
2022/03/13 09:49:44;;;;;;;12.02;5.70;;;13.20;47.20;;;13.94;30.45;100885.22;5159827;28;20146;-69
2022/03/13 09:52:16;;;;;;;11.48;6.25;;;13.40;48.20;;;14.27;29.68;100885.06;5165750;28;20061;-68
2022/03/13 09:54:48;;;;;;;11.38;5.75;;;13.70;47.50;;;14.78;29.14;100878.28;5163524;28;20042;-68
2022/03/13 09:57:20;;;;;;;16.35;6.80;;;14.00;47.30;;;15.39;28.79;100872.38;5161060;28;20043;-69
2022/03/13 09:59:53;;;;;;;14.20;6.53;;;14.50;47.00;;;15.58;27.83;100867.41;5166755;28;20062;-69
2022/03/13 10:02:35;;;;;;;12.18;5.97;;;14.90;45.90;;;15.56;29.33;100863.88;5161675;28;20052;-69
2022/03/13 10:05:10;;;;;;;13.38;6.95;;;15.00;47.70;;;15.63;28.03;100866.66;5167271;28;20057;-69
2022/03/13 10:07:58;;;;;;;16.98;8.52;;;15.20;45.70;;;15.27;28.64;100866.91;5164715;28;20046;-69
2022/03/13 10:10:33;;;;;;;13.57;7.25;;;15.00;45.70;;;15.12;28.92;100861.38;5163208;28;20057;-70
2022/03/13 10:13:05;;;;;;;;;;;14.90;46.00;;;15.27;28.84;100860.78;5164466;28;20046;-69
2022/03/13 10:15:47;;;;;;;12.82;7.25;;;14.90;46.10;;;15.30;28.87;100851.19;5166427;28;19926;-68
2022/03/13 10:18:21;;;;;;;16.88;8.88;;;15.00;46.30;;;15.42;29.05;100851.41;5165725;28;20046;-71
2022/03/13 10:20:55;;;;;;;14.18;7.93;;;15.10;46.40;;;15.54;29.55;100855.97;5160489;28;20054;-73
2022/03/13 10:23:30;;;;;;;14.93;7.68;;;15.10;46.90;;;15.58;30.08;100846.38;5166322;28;20459;-70
2022/03/13 10:26:02;;;;;;;;;;;15.20;47.60;;;15.78;29.97;100854.59;5166435;28;20137;-69
2022/03/13 10:28:36;;;;;;;15.45;8.52;;;15.40;47.50;;;15.87;29.99;100855.63;5165610;28;19976;-69
2022/03/13 10:31:13;;;;;;;;;;;15.50;47.70;;;15.91;30.42;100846.00;5166780;28;20472;-70
2022/03/13 10:33:55;;;;;;;25.85;11.63;;;15.60;48.20;;;16.14;30.30;100838.44;5166183;28;19922;-70
2022/03/13 10:36:34;;;;;;;15.45;7.20;;;15.70;48.20;;;15.94;32.54;100839.06;5165965;28;20423;-66
2022/03/13 10:39:18;;;;;;;15.65;8.40;;;15.70;49.30;;;15.93;31.03;100839.94;5166049;28;20078;-71
2022/03/13 10:41:58;;;;;;;18.13;8.25;;;15.70;48.80;;;15.85;30.27;100836.31;5165854;28;20051;-72